Time;durP1;ratioP1;P1;durP2;ratioP2;P2;SDS_P1;SDS_P2;PMS_P1;PMS_P2;Temp;Humidity;BMP_temperature;BMP_pressure;BME280_temperature;BME280_humidity;BME280_pressure;Samples;Min_cycle;Max_cycle;Signal;HPM_P1;HPM_P2
2023/04/11 00:00:22;;;;;;;38.23;34.08;;;30.10;80.30;;;;;;1782213;80;21139;-86
2023/04/11 00:03:03;;;;;;;42.78;33.25;;;30.10;80.30;;;;;;1814002;78;21233;-86
2023/04/11 00:05:30;;;;;;;40.28;34.20;;;30.10;80.40;;;;;;1807308;78;21568;-86
2023/04/11 00:08:00;;;;;;;37.85;33.58;;;30.10;80.40;;;;;;1802032;79;21229;-86
2023/04/11 00:10:31;;;;;;;37.25;33.23;;;30.20;80.40;;;;;;1784797;79;21162;-86
2023/04/11 00:13:02;;;;;;;41.85;33.33;;;30.20;80.50;;;;;;1800605;79;21679;-86
2023/04/11 00:15:34;;;;;;;38.78;33.83;;;30.20;80.20;;;;;;1809465;78;21079;-84
2023/04/11 00:18:06;;;;;;;40.88;33.18;;;30.20;80.60;;;;;;1818785;79;21145;-84
2023/04/11 00:20:37;;;;;;;42.05;35.35;;;30.30;80.00;;;;;;1791491;79;21071;-84
2023/04/11 00:23:08;;;;;;;38.98;34.27;;;30.30;80.10;;;;;;1794844;79;21150;-72
2023/04/11 00:25:40;;;;;;;44.73;34.85;;;30.30;80.10;;;;;;1761433;80;21095;-74
2023/04/11 00:28:11;;;;;;;41.80;33.55;;;30.40;80.50;;;;;;1748486;80;21227;-74
2023/04/11 00:30:43;;;;;;;44.30;33.60;;;30.30;80.60;;;;;;1754861;80;21445;-73
2023/04/11 00:33:15;;;;;;;40.73;34.13;;;30.30;80.80;;;;;;1777060;80;21564;-74
2023/04/11 00:35:46;;;;;;;39.13;33.40;;;30.40;80.70;;;;;;1766097;79;21533;-76
2023/04/11 00:38:17;;;;;;;37.60;32.25;;;30.40;80.40;;;;;;1803708;78;21162;-75
2023/04/11 00:40:48;;;;;;;39.23;32.28;;;30.40;80.30;;;;;;1809414;79;21220;-76
2023/04/11 00:43:19;;;;;;;41.48;32.10;;;30.40;79.70;;;;;;1760041;80;21515;-73
2023/04/11 00:45:51;;;;;;;40.85;33.55;;;30.30;80.20;;;;;;1759584;80;21232;-75
2023/04/11 00:48:23;;;;;;;37.65;33.55;;;30.40;80.40;;;;;;1800749;78;21146;-73
2023/04/11 00:50:55;;;;;;;39.05;31.82;;;30.40;79.80;;;;;;1798759;79;21394;-85
2023/04/11 00:53:31;;;;;;;38.85;31.20;;;30.40;79.90;;;;;;1787260;78;21266;-85
2023/04/11 00:56:01;;;;;;;34.25;30.50;;;30.40;79.70;;;;;;1775681;80;21228;-86
2023/04/11 00:58:33;;;;;;;46.88;32.23;;;30.50;79.30;;;;;;1801536;78;21110;-85
2023/04/11 01:01:09;;;;;;;37.25;31.97;;;30.50;79.30;;;;;;1786985;79;21158;-87
2023/04/11 01:03:41;;;;;;;40.73;32.60;;;30.50;78.50;;;;;;1800337;79;21144;-86
2023/04/11 01:06:14;;;;;;;38.95;31.55;;;30.60;79.30;;;;;;1818388;79;21158;-85
2023/04/11 01:08:46;;;;;;;36.35;30.85;;;30.60;79.10;;;;;;1820121;79;21231;-86
2023/04/11 01:11:19;;;;;;;39.35;30.95;;;30.70;79.00;;;;;;1813387;79;21166;-85
2023/04/11 01:13:51;;;;;;;35.70;30.08;;;30.70;79.10;;;;;;1819523;78;21263;-87
2023/04/11 01:16:22;;;;;;;36.95;31.27;;;30.80;79.20;;;;;;1813561;79;21212;-85
2023/04/11 01:18:53;;;;;;;34.03;30.20;;;30.80;79.10;;;;;;1815119;79;21577;-86
2023/04/11 01:21:25;;;;;;;38.53;30.65;;;30.90;78.60;;;;;;1801487;78;21633;-86
2023/04/11 01:23:57;;;;;;;38.02;31.87;;;31.00;78.50;;;;;;1801750;78;21219;-84
2023/04/11 01:26:28;;;;;;;34.70;30.45;;;31.00;78.50;;;;;;1794942;79;21094;-86
2023/04/11 01:28:59;;;;;;;34.98;31.20;;;31.10;79.00;;;;;;1784453;80;21200;-85
2023/04/11 01:31:31;;;;;;;37.17;29.92;;;31.10;77.80;;;;;;1793403;79;21103;-84
2023/04/11 01:34:03;;;;;;;37.17;30.12;;;31.10;77.50;;;;;;1797990;79;21146;-84
2023/04/11 01:36:35;;;;;;;37.93;29.90;;;31.20;77.40;;;;;;1791683;78;21113;-86
2023/04/11 01:39:06;;;;;;;42.75;31.12;;;31.30;77.20;;;;;;1784430;80;21153;-84
2023/04/11 01:41:38;;;;;;;36.68;30.23;;;31.30;77.30;;;;;;1749076;81;21144;-84
2023/04/11 01:44:09;;;;;;;35.25;31.10;;;31.30;77.10;;;;;;1751120;81;21571;-84
2023/04/11 01:46:40;;;;;;;37.70;31.82;;;31.30;77.00;;;;;;1751682;81;21221;-85
2023/04/11 01:49:14;;;;;;;51.13;35.13;;;31.30;77.00;;;;;;1780157;79;21123;-84
2023/04/11 01:51:45;;;;;;;43.00;31.33;;;31.40;76.80;;;;;;1779621;80;21147;-83
2023/04/11 01:54:16;;;;;;;43.13;32.38;;;31.40;77.00;;;;;;1776470;79;21216;-84
2023/04/11 01:56:47;;;;;;;35.68;30.65;;;31.40;76.90;;;;;;1782254;79;22052;-83
2023/04/11 01:59:18;;;;;;;38.88;30.00;;;31.50;77.00;;;;;;1752220;80;21213;-86
2023/04/11 02:01:49;;;;;;;39.23;31.65;;;31.50;77.30;;;;;;1768259;80;21230;-84
2023/04/11 02:04:20;;;;;;;40.15;30.40;;;31.60;77.10;;;;;;1804433;79;21675;-83
2023/04/11 02:06:52;;;;;;;35.70;29.87;;;31.60;76.50;;;;;;1798387;79;21205;-85
2023/04/11 02:09:23;;;;;;;37.13;29.77;;;31.70;76.50;;;;;;1786231;79;21169;-85
2023/04/11 02:11:55;;;;;;;32.80;29.30;;;31.80;76.30;;;;;;1796528;79;21150;-84
2023/04/11 02:14:28;;;;;;;38.75;30.95;;;31.80;75.80;;;;;;1798359;79;21242;-83
2023/04/11 02:16:59;;;;;;;40.43;32.30;;;31.90;75.60;;;;;;1743096;82;21177;-84
2023/04/11 02:19:30;;;;;;;35.15;29.70;;;31.90;75.70;;;;;;1756822;81;21201;-84
2023/04/11 02:22:01;;;;;;;40.08;29.87;;;32.00;75.90;;;;;;1792754;79;21165;-85
2023/04/11 02:24:32;;;;;;;52.98;33.40;;;32.00;75.80;;;;;;1791452;78;21146;-82
2023/04/11 02:27:03;;;;;;;52.95;32.40;;;32.10;76.20;;;;;;1791847;79;21163;-84
2023/04/11 02:29:35;;;;;;;44.10;31.05;;;32.10;75.70;;;;;;1787595;80;21734;-82
2023/04/11 02:32:06;;;;;;;33.88;29.77;;;32.30;75.10;;;;;;1784504;79;21158;-85
2023/04/11 02:34:37;;;;;;;44.70;31.02;;;32.40;75.10;;;;;;1786874;78;21220;-84
2023/04/11 02:37:08;;;;;;;35.83;30.48;;;32.40;74.70;;;;;;1771330;79;21166;-84
2023/04/11 02:39:40;;;;;;;34.38;30.70;;;32.50;74.40;;;;;;1764743;80;21333;-81
2023/04/11 02:42:12;;;;;;;40.12;31.27;;;32.60;75.30;;;;;;1752507;80;21151;-81
2023/04/11 02:44:43;;;;;;;34.48;29.55;;;32.70;73.90;;;;;;1797667;78;21466;-83
2023/04/11 02:47:14;;;;;;;37.53;29.87;;;32.70;73.30;;;;;;1774072;79;21146;-82
2023/04/11 02:49:45;;;;;;;34.50;29.92;;;32.90;73.20;;;;;;1780251;80;21216;-83
2023/04/11 02:52:17;;;;;;;33.18;29.60;;;32.90;72.80;;;;;;1770495;79;21174;-84
2023/04/11 02:54:49;;;;;;;48.10;32.35;;;32.90;73.00;;;;;;1751808;80;21135;-84
2023/04/11 02:57:20;;;;;;;45.50;30.88;;;32.90;73.00;;;;;;1762205;80;21163;-83
2023/04/11 02:59:51;;;;;;;42.78;30.82;;;33.00;72.90;;;;;;1778435;80;21139;-83
2023/04/11 03:02:23;;;;;;;36.05;30.72;;;33.10;72.70;;;;;;1779957;80;21246;-84
2023/04/11 03:04:54;;;;;;;31.85;28.45;;;33.20;72.40;;;;;;1794493;80;21205;-83
2023/04/11 03:07:26;;;;;;;32.73;29.30;;;33.30;71.70;;;;;;1780936;80;21175;-83
2023/04/11 03:09:57;;;;;;;34.18;27.90;;;33.30;71.10;;;;;;1769102;79;21559;-84
2023/04/11 03:12:28;;;;;;;36.90;29.10;;;33.40;71.20;;;;;;1781054;79;21206;-84
2023/04/11 03:14:59;;;;;;;34.27;29.20;;;33.40;70.70;;;;;;1773809;79;21264;-83
2023/04/11 03:17:30;;;;;;;32.88;29.07;;;33.50;70.20;;;;;;1777788;80;21095;-84
2023/04/11 03:20:01;;;;;;;38.02;29.50;;;33.50;70.20;;;;;;1773806;80;21127;-83
2023/04/11 03:22:32;;;;;;;36.00;29.02;;;33.50;69.70;;;;;;1773396;80;21630;-84
2023/04/11 03:25:03;;;;;;;33.25;29.40;;;33.60;69.60;;;;;;1773219;80;21251;-86
2023/04/11 03:27:34;;;;;;;33.25;28.15;;;33.70;69.70;;;;;;1788727;79;21114;-84
2023/04/11 03:30:06;;;;;;;50.60;31.42;;;33.80;69.80;;;;;;1767460;80;21103;-84
2023/04/11 03:32:37;;;;;;;44.90;31.87;;;33.90;69.00;;;;;;1809679;79;21143;-82
2023/04/11 03:35:08;;;;;;;43.38;30.43;;;34.00;68.20;;;;;;1778313;80;21202;-82
2023/04/11 03:37:40;;;;;;;36.23;29.95;;;34.10;68.40;;;;;;1755467;80;22378;-83
2023/04/11 03:40:12;;;;;;;35.88;29.92;;;34.10;67.10;;;;;;1784520;79;21181;-84
2023/04/11 03:42:43;;;;;;;33.95;28.45;;;34.20;67.50;;;;;;1811616;79;21113;-84
2023/04/11 03:45:14;;;;;;;32.42;28.32;;;34.30;67.00;;;;;;1761830;80;21149;-85
2023/04/11 03:47:45;;;;;;;31.73;28.07;;;34.40;66.70;;;;;;1764753;80;21174;-84
2023/04/11 03:50:16;;;;;;;34.43;29.77;;;34.50;65.60;;;;;;1783054;79;21139;-83
2023/04/11 03:52:48;;;;;;;32.45;28.92;;;34.50;65.40;;;;;;1813253;79;21210;-82
2023/04/11 03:55:19;;;;;;;34.08;28.75;;;34.60;65.50;;;;;;1797880;79;21217;-83
2023/04/11 03:57:50;;;;;;;36.30;30.10;;;34.70;65.30;;;;;;1792963;79;21088;-84
2023/04/11 04:00:21;;;;;;;32.38;28.17;;;34.70;65.10;;;;;;1782049;78;21146;-84
2023/04/11 04:02:52;;;;;;;34.75;28.42;;;34.80;64.70;;;;;;1813244;79;21127;-83
2023/04/11 04:05:24;;;;;;;31.65;28.20;;;34.90;64.90;;;;;;1805720;78;21162;-84
2023/04/11 04:07:55;;;;;;;33.25;29.25;;;34.90;64.10;;;;;;1792933;79;21159;-82
2023/04/11 04:10:26;;;;;;;33.75;29.12;;;35.00;63.80;;;;;;1794198;78;21202;-83
2023/04/11 04:12:58;;;;;;;30.92;27.62;;;35.10;63.40;;;;;;1797942;78;21157;-82
2023/04/11 04:15:29;;;;;;;32.13;28.70;;;35.20;63.70;;;;;;1813432;78;22119;-82
2023/04/11 04:18:00;;;;;;;35.78;28.80;;;35.30;64.20;;;;;;1749225;81;21116;-82
2023/04/11 04:20:31;;;;;;;33.23;28.12;;;35.30;63.10;;;;;;1758511;81;21162;-81
2023/04/11 04:23:03;;;;;;;32.28;27.85;;;35.30;62.10;;;;;;1752094;81;21092;-82
2023/04/11 04:25:34;;;;;;;30.15;27.10;;;35.30;62.30;;;;;;1772814;80;21146;-82
2023/04/11 04:28:05;;;;;;;31.33;27.45;;;35.40;62.00;;;;;;1775717;80;21170;-84
2023/04/11 04:30:36;;;;;;;33.60;28.12;;;35.40;62.40;;;;;;1766526;80;21149;-81
2023/04/11 04:33:11;;;;;;;29.95;26.95;;;35.50;62.80;;;;;;1773976;80;21129;-82
2023/04/11 04:35:40;;;;;;;33.08;27.02;;;35.50;61.60;;;;;;1807322;79;21178;-82
2023/04/11 04:38:16;;;;;;;36.58;28.70;;;35.60;61.50;;;;;;1782811;79;21110;-80
2023/04/11 04:40:44;;;;;;;31.45;28.10;;;35.70;60.90;;;;;;1782434;79;21162;-82
2023/04/11 04:43:19;;;;;;;30.88;27.58;;;35.80;61.00;;;;;;1782368;79;21152;-84
2023/04/11 04:45:50;;;;;;;29.55;26.55;;;35.90;60.30;;;;;;1756968;80;21176;-82
2023/04/11 04:48:24;;;;;;;30.27;27.00;;;35.90;60.40;;;;;;1779784;79;21138;-82
2023/04/11 04:50:54;;;;;;;29.90;27.02;;;36.00;59.40;;;;;;1777323;81;21614;-84
2023/04/11 04:53:25;;;;;;;30.27;27.00;;;36.00;59.70;;;;;;1765209;79;21662;-81
2023/04/11 04:55:56;;;;;;;31.10;26.60;;;36.10;59.80;;;;;;1786207;80;21639;-83
2023/04/11 04:58:27;;;;;;;30.68;27.30;;;36.20;59.50;;;;;;1772979;80;21151;-83
2023/04/11 05:00:58;;;;;;;31.50;28.10;;;36.30;58.70;;;;;;1771658;79;21175;-81
2023/04/11 05:03:34;;;;;;;31.62;28.17;;;36.30;58.30;;;;;;1770550;80;21254;-85
2023/04/11 05:06:02;;;;;;;30.62;27.37;;;36.40;58.10;;;;;;1784702;79;21626;-85
2023/04/11 05:08:33;;;;;;;29.35;26.37;;;36.40;58.10;;;;;;1768297;80;22441;-83
2023/04/11 05:11:04;;;;;;;32.80;26.93;;;36.40;58.20;;;;;;1772488;80;21518;-83
2023/04/11 05:13:35;;;;;;;30.20;26.77;;;36.50;58.20;;;;;;1778593;79;21142;-82
2023/04/11 05:16:07;;;;;;;29.52;26.15;;;36.60;58.00;;;;;;1775879;79;21666;-83
2023/04/11 05:18:38;;;;;;;29.37;26.45;;;36.60;56.80;;;;;;1769803;80;21138;-82
2023/04/11 05:21:09;;;;;;;29.67;26.68;;;36.70;57.10;;;;;;1769243;80;21222;-82
2023/04/11 05:23:40;;;;;;;31.70;28.30;;;36.70;56.60;;;;;;1790959;79;21099;-82
2023/04/11 05:26:11;;;;;;;34.43;29.30;;;36.70;57.10;;;;;;1750752;81;21208;-82
2023/04/11 05:28:42;;;;;;;30.37;27.17;;;36.70;57.30;;;;;;1778558;80;21134;-83
2023/04/11 05:31:13;;;;;;;30.45;26.35;;;36.80;57.80;;;;;;1790072;79;21164;-84
2023/04/11 05:33:44;;;;;;;29.10;26.23;;;36.80;57.50;;;;;;1761397;80;21679;-82
2023/04/11 05:36:16;;;;;;;29.55;26.50;;;36.80;56.00;;;;;;1778610;80;21127;-83
2023/04/11 05:38:47;;;;;;;32.10;28.50;;;36.80;55.60;;;;;;1773676;80;21687;-82
2023/04/11 05:41:18;;;;;;;28.98;25.95;;;36.90;55.60;;;;;;1765911;80;21196;-84
2023/04/11 05:43:49;;;;;;;28.77;25.35;;;37.00;54.80;;;;;;1794635;79;21153;-84
2023/04/11 05:46:20;;;;;;;34.13;26.82;;;37.00;55.00;;;;;;1757085;80;21655;-83
2023/04/11 05:48:51;;;;;;;28.85;25.92;;;37.10;54.60;;;;;;1769972;80;21141;-83
2023/04/11 05:51:23;;;;;;;27.80;24.95;;;37.10;54.70;;;;;;1770737;80;21137;-83
2023/04/11 05:53:54;;;;;;;29.30;25.17;;;37.10;54.80;;;;;;1772873;80;21149;-82
2023/04/11 05:56:25;;;;;;;26.35;23.55;;;37.20;54.60;;;;;;1783297;79;21150;-82
2023/04/11 05:58:56;;;;;;;29.55;26.55;;;37.20;53.60;;;;;;1811558;79;21150;-84
2023/04/11 06:01:29;;;;;;;30.97;27.85;;;37.30;53.50;;;;;;1809888;79;21136;-83
2023/04/11 06:04:00;;;;;;;35.30;31.77;;;37.20;53.90;;;;;;1794688;79;21223;-83
2023/04/11 06:06:32;;;;;;;26.55;23.85;;;37.20;54.10;;;;;;1786072;79;21531;-82
2023/04/11 06:09:03;;;;;;;25.57;22.98;;;37.30;54.50;;;;;;1770924;79;21127;-83
2023/04/11 06:11:40;;;;;;;27.58;24.87;;;37.40;53.90;;;;;;1787554;79;21233;-83
2023/04/11 06:14:07;;;;;;;26.20;23.62;;;37.40;54.20;;;;;;1770127;80;21173;-83
2023/04/11 06:16:38;;;;;;;26.85;23.85;;;37.40;54.10;;;;;;1761678;79;21617;-83
2023/04/11 06:19:09;;;;;;;28.55;24.27;;;37.40;53.70;;;;;;1772018;79;21182;-81
2023/04/11 06:21:40;;;;;;;25.25;22.75;;;37.50;54.00;;;;;;1766219;79;21269;-82
2023/04/11 06:24:11;;;;;;;27.42;24.50;;;37.50;53.20;;;;;;1773717;79;21817;-82
2023/04/11 06:26:42;;;;;;;29.55;24.25;;;37.60;53.40;;;;;;1754202;79;21098;-83
2023/04/11 06:29:13;;;;;;;27.77;24.67;;;37.60;53.50;;;;;;1794982;79;21547;-82
2023/04/11 06:31:45;;;;;;;27.73;24.40;;;37.70;53.20;;;;;;1794236;79;21126;-83
2023/04/11 06:34:16;;;;;;;67.75;28.32;;;37.70;52.30;;;;;;1781764;79;21242;-82
2023/04/11 06:36:48;;;;;;;28.23;24.10;;;37.60;52.50;;;;;;1764578;79;21150;-83
2023/04/11 06:39:19;;;;;;;35.03;28.55;;;37.60;52.80;;;;;;1800411;79;21079;-84
2023/04/11 06:41:51;;;;;;;29.63;26.42;;;37.60;52.70;;;;;;1814764;79;21141;-83
2023/04/11 06:44:22;;;;;;;32.45;27.48;;;37.50;52.70;;;;;;1798635;78;21142;-82
2023/04/11 06:46:53;;;;;;;27.87;25.12;;;37.50;53.20;;;;;;1809173;78;21180;-82
2023/04/11 06:49:25;;;;;;;26.87;24.07;;;37.50;53.20;;;;;;1811045;78;21203;-80
2023/04/11 06:51:56;;;;;;;43.15;28.05;;;37.50;53.30;;;;;;1801305;78;21146;-80
2023/04/11 06:54:27;;;;;;;30.10;25.23;;;37.50;53.30;;;;;;1799570;79;21170;-82
2023/04/11 06:56:58;;;;;;;28.87;24.52;;;37.60;52.60;;;;;;1793326;79;21106;-80
2023/04/11 06:59:30;;;;;;;28.30;25.15;;;37.70;52.20;;;;;;1809067;79;21122;-82
2023/04/11 07:02:01;;;;;;;26.48;23.87;;;37.70;52.30;;;;;;1787594;79;21550;-80
2023/04/11 07:04:32;;;;;;;26.00;23.38;;;37.70;52.10;;;;;;1776139;79;21136;-82
2023/04/11 07:07:03;;;;;;;26.52;23.85;;;37.60;52.60;;;;;;1788613;79;21293;-82
2023/04/11 07:09:35;;;;;;;25.35;22.75;;;37.60;52.60;;;;;;1784569;79;22516;-81
2023/04/11 07:12:06;;;;;;;27.55;23.12;;;37.50;52.10;;;;;;1755735;80;21201;-80
2023/04/11 07:14:37;;;;;;;26.85;22.75;;;37.50;52.20;;;;;;1791332;78;21207;-81
2023/04/11 07:17:08;;;;;;;29.12;22.77;;;37.50;52.60;;;;;;1762461;80;21279;-80
2023/04/11 07:19:39;;;;;;;26.77;23.52;;;37.50;52.50;;;;;;1764324;80;21208;-81
2023/04/11 07:22:10;;;;;;;29.95;23.52;;;37.50;52.40;;;;;;1760406;79;21106;-81
2023/04/11 07:24:42;;;;;;;25.12;22.75;;;37.50;51.80;;;;;;1765626;79;21153;-81
2023/04/11 07:27:13;;;;;;;27.45;22.62;;;37.50;51.60;;;;;;1804417;78;21169;-84
2023/04/11 07:29:44;;;;;;;29.27;23.47;;;37.50;51.80;;;;;;1780001;79;21178;-82
2023/04/11 07:32:15;;;;;;;33.80;22.80;;;37.50;51.40;;;;;;1746682;80;21539;-82
2023/04/11 07:34:46;;;;;;;36.17;25.95;;;37.50;51.60;;;;;;1800470;78;21094;-81
2023/04/11 07:37:17;;;;;;;26.45;23.35;;;37.50;51.80;;;;;;1795768;79;21619;-82
2023/04/11 07:39:48;;;;;;;25.80;23.18;;;37.60;52.20;;;;;;1786086;79;21168;-83
2023/04/11 07:42:19;;;;;;;25.72;21.75;;;37.60;50.90;;;;;;1761849;80;21118;-82
2023/04/11 07:44:51;;;;;;;25.15;22.80;;;37.60;51.50;;;;;;1799991;79;21267;-83
2023/04/11 07:47:23;;;;;;;25.50;22.93;;;37.50;51.80;;;;;;1753278;80;21640;-82
2023/04/11 07:49:54;;;;;;;24.82;22.40;;;37.50;51.40;;;;;;1805449;78;21193;-80
2023/04/11 07:52:28;;;;;;;30.00;24.85;;;37.50;51.90;;;;;;1754371;81;21160;-82
2023/04/11 07:54:59;;;;;;;26.35;22.87;;;37.60;50.80;;;;;;1749493;80;21196;-81
2023/04/11 07:57:30;;;;;;;25.20;22.27;;;37.60;52.30;;;;;;1768661;80;21212;-82
2023/04/11 08:00:02;;;;;;;25.05;22.45;;;37.60;51.10;;;;;;1799747;79;21091;-81
2023/04/11 08:02:34;;;;;;;27.48;23.10;;;37.70;51.10;;;;;;1790707;79;21075;-82
2023/04/11 08:05:08;;;;;;;25.10;22.22;;;37.70;51.50;;;;;;1795756;79;21146;-82
2023/04/11 08:07:38;;;;;;;24.75;22.25;;;37.70;51.30;;;;;;1814381;79;21126;-83
2023/04/11 08:10:10;;;;;;;35.17;23.92;;;37.70;51.30;;;;;;1791233;79;21182;-83
2023/04/11 08:12:41;;;;;;;37.93;22.98;;;37.70;50.70;;;;;;1772290;80;21166;-80
2023/04/11 08:15:37;;;;;;;25.35;22.80;;;37.70;50.20;;;;;;1753897;80;21147;-81
2023/04/11 08:18:08;;;;;;;28.55;23.12;;;37.70;50.60;;;;;;1754696;81;21133;-82
2023/04/11 08:20:41;;;;;;;28.67;23.40;;;37.70;51.00;;;;;;1757771;80;21249;-80
2023/04/11 08:23:12;;;;;;;26.85;24.02;;;37.60;50.80;;;;;;1799128;79;21146;-81
2023/04/11 08:25:43;;;;;;;27.60;24.37;;;37.70;50.20;;;;;;1790804;79;21137;-80
2023/04/11 08:28:14;;;;;;;25.20;22.77;;;37.70;50.00;;;;;;1789599;79;21168;-81
2023/04/11 08:30:45;;;;;;;25.72;23.22;;;37.70;50.40;;;;;;1765023;79;21104;-81
2023/04/11 08:33:16;;;;;;;25.97;23.45;;;37.70;49.90;;;;;;1777121;81;21154;-81
2023/04/11 08:35:47;;;;;;;26.62;23.83;;;37.60;50.60;;;;;;1767230;79;21243;-80
2023/04/11 08:38:18;;;;;;;26.50;22.75;;;37.60;50.10;;;;;;1811321;79;21635;-81
2023/04/11 08:40:49;;;;;;;27.60;23.60;;;37.70;49.80;;;;;;1765443;79;21344;-82
2023/04/11 08:43:20;;;;;;;25.88;23.10;;;37.70;49.50;;;;;;1782247;79;21139;-81
2023/04/11 08:45:51;;;;;;;28.07;24.52;;;37.60;49.70;;;;;;1754056;80;21380;-81
2023/04/11 08:48:24;;;;;;;30.92;24.55;;;37.60;50.60;;;;;;1796796;79;21143;-80
2023/04/11 08:50:55;;;;;;;27.70;23.00;;;37.60;50.10;;;;;;1796290;79;21068;-83
2023/04/11 08:53:26;;;;;;;32.45;23.62;;;37.60;51.20;;;;;;1775614;80;21165;-81
2023/04/11 08:55:58;;;;;;;30.82;23.65;;;37.60;49.60;;;;;;1761023;79;21149;-82
2023/04/11 08:58:31;;;;;;;27.80;23.52;;;37.60;49.90;;;;;;1818801;79;21071;-83
2023/04/11 09:01:27;;;;;;;36.85;25.35;;;37.60;49.40;;;;;;1813084;79;21146;-82
2023/04/11 09:04:00;;;;;;;34.85;24.40;;;37.60;50.40;;;;;;1799341;78;21213;-77
2023/04/11 09:06:32;;;;;;;27.60;24.82;;;37.60;49.80;;;;;;1797569;78;21176;-74
2023/04/11 09:09:05;;;;;;;30.05;24.92;;;37.60;50.30;;;;;;1798559;78;21137;-73
2023/04/11 09:11:55;;;;;;;29.72;25.57;;;37.50;49.80;;;;;;1815428;79;21114;-76
2023/04/11 09:14:26;;;;;;;28.42;25.20;;;37.50;49.70;;;;;;1761155;79;21683;-74
2023/04/11 09:17:03;;;;;;;29.80;25.72;;;37.50;50.30;;;;;;1791148;78;21205;-74
2023/04/11 09:19:35;;;;;;;45.65;27.45;;;37.50;49.50;;;;;;1768713;80;21158;-75
2023/04/11 09:22:06;;;;;;;28.05;24.85;;;37.50;49.10;;;;;;1790455;79;21185;-74
2023/04/11 09:24:38;;;;;;;27.10;24.45;;;37.40;49.30;;;;;;1760254;80;21200;-77
2023/04/11 09:27:14;;;;;;;29.15;25.23;;;37.40;49.80;;;;;;1759233;81;21626;-87
2023/04/11 09:29:47;;;;;;;35.75;26.35;;;37.40;49.40;;;;;;1768721;78;21687;-83
2023/04/11 09:32:34;;;;;;;28.15;25.10;;;37.30;49.20;;;;;;1791233;78;21683;-85
2023/04/11 09:35:17;;;;;;;31.95;26.62;;;37.30;49.40;;;;;;1787105;78;21118;-84
2023/04/11 09:37:55;;;;;;;28.90;26.07;;;37.30;49.70;;;;;;1775021;78;21229;-84
2023/04/11 09:40:30;;;;;;;30.65;27.42;;;37.20;49.50;;;;;;1784455;78;21138;-86
2023/04/11 09:43:03;;;;;;;33.70;27.80;;;37.20;49.50;;;;;;1778797;79;21175;-85
2023/04/11 09:45:34;;;;;;;29.30;26.25;;;37.20;49.70;;;;;;1784287;79;21221;-87
2023/04/11 09:48:08;;;;;;;38.00;26.50;;;37.20;49.70;;;;;;1798468;79;21156;-85
2023/04/11 09:50:40;;;;;;;32.98;28.57;;;37.10;49.10;;;;;;1811219;79;21145;-84
2023/04/11 09:53:11;;;;;;;39.13;27.90;;;37.10;49.10;;;;;;1811319;78;21208;-84
2023/04/11 09:55:42;;;;;;;29.27;26.20;;;37.10;49.50;;;;;;1801489;79;21201;-86
2023/04/11 09:58:14;;;;;;;29.23;26.15;;;37.10;49.70;;;;;;1788595;78;21591;-84
2023/04/11 10:00:46;;;;;;;28.10;25.23;;;37.10;49.60;;;;;;1775905;78;21067;-87
2023/04/11 10:03:19;;;;;;;29.75;26.60;;;37.10;49.70;;;;;;1773268;78;21225;-87
2023/04/11 10:05:52;;;;;;;37.70;25.97;;;37.10;49.80;;;;;;1775720;79;21166;-86
2023/04/11 10:08:33;;;;;;;27.90;24.87;;;37.10;50.20;;;;;;1772835;79;21516;-85
2023/04/11 10:11:10;;;;;;;39.23;26.42;;;37.00;50.30;;;;;;1778674;78;21220;-84
2023/04/11 10:13:45;;;;;;;29.42;26.42;;;37.00;50.00;;;;;;1783719;78;21126;-83
2023/04/11 10:16:21;;;;;;;28.30;25.27;;;37.00;49.80;;;;;;1775291;79;21593;-83
2023/04/11 10:18:59;;;;;;;30.37;25.50;;;37.00;49.50;;;;;;1775402;79;21574;-85
2023/04/11 10:21:35;;;;;;;32.55;26.93;;;37.00;49.90;;;;;;1774760;78;21211;-83
2023/04/11 10:24:13;;;;;;;29.18;26.02;;;36.90;50.20;;;;;;1772993;79;21154;-82
2023/04/11 10:27:06;;;;;;;31.07;25.75;;;36.90;49.70;;;;;;1783170;79;21142;-84
2023/04/11 10:29:48;;;;;;;29.63;26.40;;;36.90;50.30;;;;;;1798586;78;21129;-84
2023/04/11 10:32:22;;;;;;;52.03;27.17;;;36.80;50.30;;;;;;1791255;78;21204;-84
2023/04/11 10:34:56;;;;;;;27.95;24.98;;;36.80;50.50;;;;;;1765708;80;21162;-84
2023/04/11 10:37:37;;;;;;;31.15;25.25;;;36.80;51.00;;;;;;1785329;79;21133;-86
2023/04/11 10:40:09;;;;;;;38.95;26.55;;;36.80;50.70;;;;;;1762281;79;21130;-84
2023/04/11 10:42:45;;;;;;;36.03;25.30;;;36.80;51.00;;;;;;1764132;79;21121;-84
2023/04/11 10:45:22;;;;;;;;;;;36.70;51.10;;;;;;1760405;79;21883;-85
2023/04/11 10:48:00;;;;;;;35.10;25.52;;;36.70;52.40;;;;;;1767108;79;20174;-87
2023/04/11 10:50:35;;;;;;;31.07;25.60;;;36.70;51.20;;;;;;1768442;79;21165;-86
2023/04/11 10:53:08;;;;;;;27.62;24.82;;;36.70;51.70;;;;;;1759902;79;21094;-85
2023/04/11 10:55:47;;;;;;;35.58;26.10;;;36.60;50.90;;;;;;1765454;79;21721;-86
2023/04/11 10:58:20;;;;;;;45.28;27.90;;;36.60;50.90;;;;;;1788770;78;21091;-85
2023/04/11 11:01:09;;;;;;;39.40;26.33;;;36.60;50.80;;;;;;1791697;79;21194;-85
2023/04/11 11:03:42;;;;;;;34.63;26.42;;;36.60;51.10;;;;;;1794232;78;21277;-86
2023/04/11 11:06:14;;;;;;;44.48;30.90;;;36.50;51.10;;;;;;1795046;78;21629;-85
2023/04/11 11:08:45;;;;;;;31.15;27.00;;;36.50;51.30;;;;;;1750990;80;22108;-87
2023/04/11 11:11:18;;;;;;;37.10;27.35;;;36.40;51.30;;;;;;1770290;79;21165;-86
2023/04/11 11:13:54;;;;;;;29.75;26.52;;;36.40;51.10;;;;;;1761491;79;21176;-84
2023/04/11 11:16:27;;;;;;;40.67;28.85;;;36.40;51.50;;;;;;1765662;79;21150;-84
2023/04/11 11:18:58;;;;;;;35.83;25.68;;;36.40;51.20;;;;;;1765215;79;21145;-85
2023/04/11 11:21:33;;;;;;;34.80;26.17;;;36.30;51.30;;;;;;1759318;79;21644;-85
2023/04/11 11:24:04;;;;;;;31.82;26.40;;;36.30;51.30;;;;;;1759821;79;21238;-85
2023/04/11 11:26:45;;;;;;;40.10;26.35;;;36.30;51.90;;;;;;1787860;79;21671;-84
2023/04/11 11:29:16;;;;;;;37.40;30.48;;;36.30;51.90;;;;;;1763721;79;21206;-85
2023/04/11 11:31:47;;;;;;;36.55;28.25;;;36.20;51.80;;;;;;1760770;79;21082;-85
2023/04/11 11:34:21;;;;;;;41.35;28.45;;;36.20;51.80;;;;;;1775950;79;21977;-85
2023/04/11 11:36:55;;;;;;;40.03;27.27;;;36.20;52.00;;;;;;1761592;79;21177;-84
2023/04/11 11:39:27;;;;;;;35.70;27.25;;;36.20;52.40;;;;;;1774632;79;21720;-85
2023/04/11 11:41:59;;;;;;;37.80;27.87;;;36.10;52.40;;;;;;1800596;79;21578;-84
2023/04/11 11:44:31;;;;;;;35.35;30.72;;;36.10;52.40;;;;;;1771179;79;21200;-85
2023/04/11 11:47:16;;;;;;;45.33;30.48;;;36.10;52.50;;;;;;1772976;78;21273;-85
2023/04/11 11:49:52;;;;;;;32.33;28.92;;;36.00;52.70;;;;;;1785906;78;21150;-85
2023/04/11 11:52:33;;;;;;;79.53;32.35;;;36.00;52.50;;;;;;1788397;78;21099;-86
2023/04/11 11:55:08;;;;;;;39.53;32.88;;;36.00;52.90;;;;;;1778423;78;21756;-86
2023/04/11 11:57:45;;;;;;;41.98;32.63;;;35.90;53.00;;;;;;1783292;78;21151;-88
2023/04/11 12:00:18;;;;;;;39.85;33.42;;;35.90;53.20;;;;;;1775849;79;21150;-87
2023/04/11 12:02:52;;;;;;;40.52;31.23;;;35.90;52.90;;;;;;1780131;79;21153;-86
2023/04/11 12:05:31;;;;;;;34.95;30.05;;;35.90;53.20;;;;;;1793993;79;21649;-87
2023/04/11 12:08:03;;;;;;;33.08;29.65;;;35.80;53.20;;;;;;1752127;80;21931;-86
2023/04/11 12:10:45;;;;;;;49.58;34.90;;;35.80;53.20;;;;;;1765633;80;21114;-86
2023/04/11 12:13:21;;;;;;;66.62;32.83;;;35.80;53.30;;;;;;1761485;80;21212;-85
2023/04/11 12:15:51;;;;;;;;;;;35.80;53.40;;;;;;1785645;78;21203;-86
2023/04/11 12:18:24;;;;;;;34.78;29.52;;;35.70;53.60;;;;;;1784041;79;20425;-86
2023/04/11 12:20:55;;;;;;;41.15;30.08;;;35.70;53.50;;;;;;1776125;79;21237;-86
2023/04/11 12:23:26;;;;;;;40.58;30.43;;;35.70;53.50;;;;;;1810316;79;21098;-86
2023/04/11 12:25:57;;;;;;;38.42;31.85;;;35.70;53.50;;;;;;1776728;79;21214;-87
2023/04/11 12:28:28;;;;;;;40.45;33.05;;;35.70;53.60;;;;;;1785190;78;21154;-86
2023/04/11 12:30:59;;;;;;;39.75;32.00;;;35.60;53.70;;;;;;1778064;78;21531;-88
2023/04/11 12:33:30;;;;;;;45.90;37.08;;;35.60;53.80;;;;;;1793745;79;21142;-85
2023/04/11 12:36:01;;;;;;;54.83;33.50;;;35.60;54.10;;;;;;1800743;78;21114;-88
2023/04/11 12:38:33;;;;;;;52.15;32.15;;;35.60;54.20;;;;;;1783454;79;21203;-86
2023/04/11 12:41:04;;;;;;;42.23;30.20;;;35.60;54.20;;;;;;1796164;78;21224;-86
2023/04/11 12:43:36;;;;;;;42.70;32.67;;;35.50;53.90;;;;;;1795364;78;21632;-86
2023/04/11 12:46:07;;;;;;;48.38;34.50;;;35.50;53.90;;;;;;1793837;78;21105;-86
2023/04/11 12:48:38;;;;;;;36.42;31.20;;;35.50;54.00;;;;;;1786724;78;21103;-87
2023/04/11 12:51:09;;;;;;;38.92;32.25;;;35.50;53.90;;;;;;1785340;79;21115;-87
2023/04/11 12:53:40;;;;;;;34.95;30.40;;;35.50;53.80;;;;;;1797383;78;21645;-87